logo dgac
Martes 21 de Mayo del 2019
Buscar por aerodromo o helipuerto
Ingrese nombre de aeródromo, localidad o designador OACI:
METAR del 20-05-2019 a las 22:00 UTC
METAR SCRD 202200Z 18005KT CAVOK 10/03 Q1023
Viento: dirección 180 grados, velocidad 5 nudos
Visibilidad: 10 km o más,
    sin nubes bajo los 5.000 pies o bajo del MSA (Mínimo de Seguridad del Aeródromo),
    sin cumulonimbus, y sin fenómenos de tiempo significativo en el aeródromo o alrededores
Temperatura: 10 °C
Rocío: 3 °C
Humedad_relativa: 62%
Presión: 1023 hPa
METAR del 20-05-2019 a las 21:00 UTC
METAR SCRD 202100Z 22011KT 9999 FEW030 12/04 Q1022
Viento: dirección 220 grados, velocidad 11 nudos
Visibilidad: 10 km o más
Nubes: Escasa nubosidad a 3000 pies sobre el nivel del aeródromo
Temperatura: 12 °C
Rocío: 4 °C
Humedad_relativa: 58%
Presión: 1022 hPa
METAR del 20-05-2019 a las 20:00 UTC
METAR SCRD 202000Z 16006KT 9999 SCT035 13/03 Q1022
Viento: dirección 160 grados, velocidad 6 nudos
Visibilidad: 10 km o más
Nubes: Nubosidad parcial a 3500 pies sobre el nivel del aeródromo
Temperatura: 13 °C
Rocío: 3 °C
Humedad_relativa: 51%
Presión: 1022 hPa
METAR del 20-05-2019 a las 19:00 UTC
METAR SCRD 201900Z 22013KT 9999 BKN030 12/04 Q1022
Viento: dirección 220 grados, velocidad 13 nudos
Visibilidad: 10 km o más
Nubes: Nublado a 3000 pies sobre el nivel del aeródromo
Temperatura: 12 °C
Rocío: 4 °C
Humedad_relativa: 58%
Presión: 1022 hPa
METAR del 20-05-2019 a las 18:00 UTC
METAR SCRD 201800Z 21014KT 9999 SCT020 14/03 Q1021
Viento: dirección 210 grados, velocidad 14 nudos
Visibilidad: 10 km o más
Nubes: Nubosidad parcial a 2000 pies sobre el nivel del aeródromo
Temperatura: 14 °C
Rocío: 3 °C
Humedad_relativa: 47%
Presión: 1021 hPa
METAR del 20-05-2019 a las 18:00 UTC
METAR SCRD 201800Z 21014KT 9999 SCT020 14/03 Q1021
Viento: dirección 210 grados, velocidad 14 nudos
Visibilidad: 10 km o más
Nubes: Nubosidad parcial a 2000 pies sobre el nivel del aeródromo
Temperatura: 14 °C
Rocío: 3 °C
Humedad_relativa: 47%
Presión: 1021 hPa
METAR del 20-05-2019 a las 17:00 UTC
METAR SCRD 201700Z 22012KT 9999 SCT020 14/03 Q1021
Viento: dirección 220 grados, velocidad 12 nudos
Visibilidad: 10 km o más
Nubes: Nubosidad parcial a 2000 pies sobre el nivel del aeródromo
Temperatura: 14 °C
Rocío: 3 °C
Humedad_relativa: 47%
Presión: 1021 hPa
METAR del 20-05-2019 a las 16:00 UTC
METAR SCRD 201600Z 22005KT 9999 SCT020 13/05 Q1021
Viento: dirección 220 grados, velocidad 5 nudos
Visibilidad: 10 km o más
Nubes: Nubosidad parcial a 2000 pies sobre el nivel del aeródromo
Temperatura: 13 °C
Rocío: 5 °C
Humedad_relativa: 58%
Presión: 1021 hPa
METAR del 20-05-2019 a las 16:00 UTC
METAR SCRD 201600Z 22005KT 9999 SCT020 13/05 Q1021
Viento: dirección 220 grados, velocidad 5 nudos
Visibilidad: 10 km o más
Nubes: Nubosidad parcial a 2000 pies sobre el nivel del aeródromo
Temperatura: 13 °C
Rocío: 5 °C
Humedad_relativa: 58%
Presión: 1021 hPa
METAR del 20-05-2019 a las 15:00 UTC
METAR SCRD 201500Z 20009KT 9999 FEW020 12/05 Q1021
Viento: dirección 200 grados, velocidad 9 nudos
Visibilidad: 10 km o más
Nubes: Escasa nubosidad a 2000 pies sobre el nivel del aeródromo
Temperatura: 12 °C
Rocío: 5 °C
Humedad_relativa: 62%
Presión: 1021 hPa